Time;durP1;ratioP1;P1;durP2;ratioP2;P2;SDS_P1;SDS_P2;PMS_P1;PMS_P2;Temp;Humidity;BMP_temperature;BMP_pressure;BME280_temperature;BME280_humidity;BME280_pressure;Samples;Min_cycle;Max_cycle;Signal;HPM_P1;HPM_P2
2023/07/28 00:00:35;;;;;;;3.15;2.40;;;;;;;;;;10417938;27;20063;-64
2023/07/28 00:05:36;;;;;;;4.28;2.53;;;;;;;;;;10414321;27;20146;-63
2023/07/28 00:10:34;;;;;;;5.18;2.28;;;;;;;;;;10413973;27;20085;-63
2023/07/28 00:15:33;;;;;;;3.55;2.88;;;;;;;;;;10418444;27;20067;-64
2023/07/28 00:20:31;;;;;;;3.67;2.67;;;;;;;;;;10418033;27;20071;-64
2023/07/28 00:25:30;;;;;;;3.50;3.20;;;;;;;;;;10416814;27;20071;-64
2023/07/28 00:30:29;;;;;;;2.92;2.30;;;;;;;;;;10416902;27;20075;-64
2023/07/28 00:35:27;;;;;;;4.30;2.33;;;;;;;;;;10415364;27;20071;-64
2023/07/28 00:40:25;;;;;;;3.42;2.60;;;;;;;;;;10416163;27;20067;-63
2023/07/28 00:45:25;;;;;;;2.80;2.50;;;;;;;;;;10415826;27;20043;-64
2023/07/28 00:50:23;;;;;;;4.30;2.95;;;;;;;;;;10416338;27;20063;-63
2023/07/28 00:55:24;;;;;;;4.30;3.25;;;;;;;;;;10416034;27;20078;-63
2023/07/28 01:00:22;;;;;;;3.00;2.60;;;;;;;;;;10410569;27;20070;-65
2023/07/28 01:05:22;;;;;;;5.40;2.83;;;;;;;;;;10398821;27;20484;-63
2023/07/28 01:10:23;;;;;;;4.72;2.40;;;;;;;;;;10415037;27;20070;-63
2023/07/28 01:15:22;;;;;;;6.65;2.60;;;;;;;;;;10415591;27;20071;-63
2023/07/28 01:20:23;;;;;;;5.13;2.70;;;;;;;;;;10413599;27;20081;-63
2023/07/28 01:25:29;;;;;;;5.55;2.30;;;;;;;;;;10413771;27;20081;-63
2023/07/28 01:30:29;;;;;;;7.38;3.30;;;;;;;;;;10415485;27;20067;-64
2023/07/28 01:35:27;;;;;;;3.92;2.60;;;;;;;;;;10413444;27;20078;-64
2023/07/28 01:40:26;;;;;;;3.65;2.35;;;;;;;;;;10401204;27;20070;-63
2023/07/28 01:45:24;;;;;;;5.78;3.28;;;;;;;;;;10414640;27;20067;-63
2023/07/28 01:50:24;;;;;;;4.07;2.42;;;;;;;;;;10413283;27;20071;-63
2023/07/28 01:55:22;;;;;;;6.03;3.22;;;;;;;;;;10413095;27;20078;-64
2023/07/28 02:00:20;;;;;;;5.00;2.85;;;;;;;;;;10395690;27;20071;-63
2023/07/28 02:05:19;;;;;;;3.10;2.60;;;;;;;;;;10412992;27;20071;-64
2023/07/28 02:10:18;;;;;;;3.38;2.38;;;;;;;;;;10413499;27;20082;-63
2023/07/28 02:15:16;;;;;;;4.32;2.53;;;;;;;;;;10393910;27;20082;-63
2023/07/28 02:20:15;;;;;;;10.73;2.55;;;;;;;;;;10412520;28;20075;-63
2023/07/28 02:25:13;;;;;;;4.20;2.38;;;;;;;;;;10412585;28;20065;-63
2023/07/28 02:30:25;;;;;;;6.35;2.75;;;;;;;;;;10410086;28;20546;-63
2023/07/28 02:35:23;;;;;;;4.40;2.58;;;;;;;;;;10410931;28;20067;-63
2023/07/28 02:40:21;;;;;;;8.95;2.95;;;;;;;;;;10412307;28;20068;-64
2023/07/28 02:45:19;;;;;;;4.10;2.20;;;;;;;;;;10411172;28;20087;-64
2023/07/28 02:50:19;;;;;;;4.88;2.17;;;;;;;;;;10413025;28;20074;-62
2023/07/28 02:55:17;;;;;;;6.85;2.33;;;;;;;;;;10410660;28;20067;-63
2023/07/28 03:00:16;;;;;;;5.85;2.72;;;;;;;;;;10412761;28;20071;-64
2023/07/28 03:05:14;;;;;;;4.70;2.60;;;;;;;;;;10411012;28;20500;-64
2023/07/28 03:10:34;;;;;;;2.88;2.28;;;;;;;;;;10422139;27;20090;-63
2023/07/28 03:15:33;;;;;;;6.25;2.70;;;;;;;;;;10412290;28;20067;-64
2023/07/28 03:20:31;;;;;;;4.28;2.35;;;;;;;;;;10393304;28;20075;-65
2023/07/28 03:25:30;;;;;;;4.45;3.00;;;;;;;;;;10409256;28;20089;-63
2023/07/28 03:30:29;;;;;;;3.90;2.70;;;;;;;;;;10412340;27;20075;-62
2023/07/28 03:35:28;;;;;;;5.22;2.88;;;;;;;;;;10398931;27;20043;-63
2023/07/28 03:40:34;;;;;;;2.60;2.40;;;;;;;;;;10407737;27;20043;-63
2023/07/28 03:45:34;;;;;;;5.20;2.60;;;;;;;;;;10409496;27;20055;-62
2023/07/28 03:50:33;;;;;;;3.75;2.28;;;;;;;;;;10404344;27;20507;-62
2023/07/28 03:55:31;;;;;;;4.47;2.47;;;;;;;;;;10381674;28;20075;-62
2023/07/28 04:00:30;;;;;;;9.70;2.53;;;;;;;;;;10376243;28;20048;-62
2023/07/28 04:05:29;;;;;;;6.30;2.55;;;;;;;;;;10376313;28;20086;-63
2023/07/28 04:10:27;;;;;;;2.92;2.33;;;;;;;;;;10375859;28;20075;-63
2023/07/28 04:15:26;;;;;;;3.28;2.50;;;;;;;;;;10374517;28;20066;-63
2023/07/28 04:20:24;;;;;;;9.15;3.25;;;;;;;;;;10375663;28;20087;-63
2023/07/28 04:25:24;;;;;;;5.43;3.10;;;;;;;;;;10374996;28;20070;-63
2023/07/28 04:30:22;;;;;;;4.85;2.30;;;;;;;;;;10371974;28;20072;-63
2023/07/28 04:35:24;;;;;;;6.70;2.65;;;;;;;;;;10376770;28;20074;-64
2023/07/28 04:40:24;;;;;;;4.00;2.25;;;;;;;;;;10374599;28;20079;-64
2023/07/28 04:45:22;;;;;;;3.33;2.30;;;;;;;;;;10379253;28;20051;-65
2023/07/28 04:50:21;;;;;;;5.68;2.40;;;;;;;;;;10366922;28;20524;-63
2023/07/28 04:55:49;;;;;;;6.10;2.88;;;;;;;;;;10409726;27;20086;-63
2023/07/28 05:00:48;;;;;;;4.72;2.83;;;;;;;;;;10400967;27;20051;-64
2023/07/28 05:05:46;;;;;;;18.23;16.42;;;;;;;;;;10403334;27;20066;-63
2023/07/28 05:10:45;;;;;;;3.00;2.65;;;;;;;;;;10396843;27;20091;-63
2023/07/28 05:15:45;;;;;;;3.83;3.05;;;;;;;;;;10405123;27;20496;-64
2023/07/28 05:20:55;;;;;;;4.63;2.95;;;;;;;;;;10394757;27;20062;-64
2023/07/28 05:25:53;;;;;;;6.43;3.45;;;;;;;;;;10401624;27;20070;-63
2023/07/28 05:30:53;;;;;;;2.90;2.00;;;;;;;;;;10409036;27;20063;-65
2023/07/28 05:35:59;;;;;;;3.10;2.38;;;;;;;;;;10396092;27;20078;-63
2023/07/28 05:41:02;;;;;;;17.20;15.43;;;;;;;;;;10413615;27;20111;-63
2023/07/28 05:46:02;;;;;;;7.60;5.90;;;;;;;;;;10410346;27;20094;-63
2023/07/28 05:51:05;;;;;;;6.53;2.67;;;;;;;;;;10411145;27;20086;-63
2023/07/28 05:56:04;;;;;;;4.90;4.20;;;;;;;;;;10369703;28;20049;-63
2023/07/28 06:01:05;;;;;;;2.83;2.45;;;;;;;;;;10371862;28;20048;-64
2023/07/28 06:06:26;;;;;;;5.00;2.20;;;;;;;;;;10364842;28;20489;-64
2023/07/28 06:11:34;;;;;;;4.43;2.20;;;;;;;;;;10369869;28;20087;-63
2023/07/28 06:16:35;;;;;;;5.05;2.50;;;;;;;;;;10373000;28;20046;-64
2023/07/28 06:21:34;;;;;;;5.43;3.42;;;;;;;;;;10371097;28;20516;-64
2023/07/28 06:26:33;;;;;;;5.30;2.58;;;;;;;;;;10367190;28;20079;-63
2023/07/28 06:31:31;;;;;;;6.03;3.10;;;;;;;;;;10372661;28;20079;-64
2023/07/28 06:36:32;;;;;;;6.40;2.65;;;;;;;;;;10372924;28;20067;-64
2023/07/28 06:41:30;;;;;;;3.00;2.10;;;;;;;;;;10362618;28;20074;-64
2023/07/28 06:46:31;;;;;;;4.25;2.05;;;;;;;;;;10374955;28;20075;-64
2023/07/28 06:51:29;;;;;;;2.67;2.40;;;;;;;;;;10360418;28;20079;-63
2023/07/28 06:56:29;;;;;;;5.18;2.80;;;;;;;;;;10406113;28;20086;-64
2023/07/28 07:01:27;;;;;;;2.97;2.28;;;;;;;;;;10406555;28;20079;-62
2023/07/28 07:06:25;;;;;;;6.13;3.53;;;;;;;;;;10403579;27;20066;-64
2023/07/28 07:11:23;;;;;;;2.28;2.05;;;;;;;;;;10399075;27;20075;-62
2023/07/28 07:16:24;;;;;;;2.42;2.17;;;;;;;;;;10414650;27;20081;-63
2023/07/28 07:21:22;;;;;;;2.78;2.50;;;;;;;;;;10416043;27;20074;-63
2023/07/28 07:26:20;;;;;;;2.75;2.30;;;;;;;;;;10419890;27;20075;-63
2023/07/28 07:31:19;;;;;;;5.25;1.83;;;;;;;;;;10415412;27;20072;-63
2023/07/28 07:36:19;;;;;;;7.30;2.60;;;;;;;;;;10414700;27;20067;-63
2023/07/28 07:41:19;;;;;;;3.78;2.53;;;;;;;;;;10417337;27;20074;-62
2023/07/28 07:46:19;;;;;;;2.13;1.98;;;;;;;;;;10416234;27;20089;-63
2023/07/28 07:51:18;;;;;;;2.95;2.40;;;;;;;;;;10420643;27;20062;-63
2023/07/28 07:56:17;;;;;;;5.15;2.22;;;;;;;;;;10420899;27;20476;-63
2023/07/28 08:01:16;;;;;;;2.65;1.63;;;;;;;;;;10418694;27;20078;-63
2023/07/28 08:06:14;;;;;;;2.78;1.67;;;;;;;;;;10417882;27;20086;-63
2023/07/28 08:11:14;;;;;;;3.65;2.15;;;;;;;;;;10417907;27;20555;-63
2023/07/28 08:16:12;;;;;;;3.03;2.13;;;;;;;;;;10418639;27;20074;-63
2023/07/28 08:21:10;;;;;;;2.97;1.65;;;;;;;;;;10415014;27;20614;-63
2023/07/28 08:26:08;;;;;;;1.65;1.48;;;;;;;;;;10415605;27;20073;-63
2023/07/28 08:31:11;;;;;;;3.83;1.88;;;;;;;;;;10417730;27;20078;-63
2023/07/28 08:36:09;;;;;;;2.22;1.60;;;;;;;;;;10410472;27;20326;-62
2023/07/28 08:41:07;;;;;;;1.90;1.45;;;;;;;;;;10416358;27;20071;-63
2023/07/28 08:46:06;;;;;;;2.65;1.83;;;;;;;;;;10416035;27;20044;-63
2023/07/28 08:51:05;;;;;;;1.75;1.65;;;;;;;;;;10415737;27;20211;-64
2023/07/28 08:56:05;;;;;;;1.95;1.85;;;;;;;;;;10416674;27;20087;-64
2023/07/28 09:01:06;;;;;;;1.60;1.15;;;;;;;;;;10415502;27;20412;-63
2023/07/28 09:06:08;;;;;;;2.17;1.50;;;;;;;;;;10414948;27;20079;-63
2023/07/28 09:11:06;;;;;;;2.20;1.67;;;;;;;;;;10413508;27;20078;-63
2023/07/28 09:16:05;;;;;;;4.97;3.95;;;;;;;;;;10414453;27;20527;-62
2023/07/28 09:21:03;;;;;;;1.85;1.70;;;;;;;;;;10419253;27;20071;-63
2023/07/28 09:26:05;;;;;;;1.48;1.27;;;;;;;;;;10414964;27;20071;-63
2023/07/28 09:31:05;;;;;;;5.85;2.45;;;;;;;;;;10414725;27;20523;-63
2023/07/28 09:36:10;;;;;;;1.92;1.58;;;;;;;;;;10412158;27;20054;-63
2023/07/28 09:41:11;;;;;;;1.80;1.50;;;;;;;;;;10414128;27;20080;-63
2023/07/28 09:46:10;;;;;;;2.95;1.83;;;;;;;;;;10413579;27;20085;-63
2023/07/28 09:51:12;;;;;;;3.83;2.28;;;;;;;;;;10414150;27;20519;-64
2023/07/28 09:56:13;;;;;;;1.20;1.10;;;;;;;;;;10415205;27;20556;-63
2023/07/28 10:01:13;;;;;;;2.78;2.33;;;;;;;;;;10412428;27;20074;-63
2023/07/28 10:06:13;;;;;;;3.80;2.25;;;;;;;;;;10411978;27;20154;-63
2023/07/28 10:11:13;;;;;;;1.45;1.30;;;;;;;;;;10416216;27;20082;-62
2023/07/28 10:16:12;;;;;;;4.20;1.70;;;;;;;;;;10415475;27;20074;-63
2023/07/28 10:21:16;;;;;;;4.20;1.55;;;;;;;;;;10411673;28;20055;-63
2023/07/28 10:26:14;;;;;;;;;;;;;;;;;;10410821;28;20546;-63
2023/07/28 10:31:30;;;;;;;2.08;1.50;;;;;;;;;;10416628;28;20387;-62
2023/07/28 10:36:34;;;;;;;2.03;1.20;;;;;;;;;;10412333;28;20081;-62
2023/07/28 10:41:35;;;;;;;2.75;1.65;;;;;;;;;;10417780;27;20500;-63
2023/07/28 10:46:36;;;;;;;1.67;1.33;;;;;;;;;;10421073;27;20079;-63
2023/07/28 10:51:36;;;;;;;2.25;1.35;;;;;;;;;;10420192;27;20079;-63
2023/07/28 10:56:35;;;;;;;3.92;1.83;;;;;;;;;;10421359;27;20086;-64
2023/07/28 11:01:35;;;;;;;1.75;1.60;;;;;;;;;;10421967;27;20075;-63
2023/07/28 11:06:33;;;;;;;3.50;1.60;;;;;;;;;;10421715;27;20496;-62
2023/07/28 11:11:32;;;;;;;1.63;1.52;;;;;;;;;;10420245;27;20477;-63
2023/07/28 11:16:31;;;;;;;1.48;1.38;;;;;;;;;;10420121;27;20078;-62
2023/07/28 11:21:31;;;;;;;5.15;1.40;;;;;;;;;;10419673;27;20086;-63
2023/07/28 11:26:29;;;;;;;2.50;1.88;;;;;;;;;;10418342;27;20130;-63
2023/07/28 11:31:27;;;;;;;2.78;1.85;;;;;;;;;;10420434;27;20098;-63
2023/07/28 11:36:26;;;;;;;4.72;4.20;;;;;;;;;;10415910;27;20044;-63
2023/07/28 11:41:26;;;;;;;2.30;1.90;;;;;;;;;;10417714;27;20557;-63
2023/07/28 11:46:34;;;;;;;1.70;1.60;;;;;;;;;;10420212;27;20077;-63
2023/07/28 11:51:38;;;;;;;3.03;2.50;;;;;;;;;;10418862;27;20075;-63
2023/07/28 11:56:38;;;;;;;1.70;1.60;;;;;;;;;;10417401;27;20062;-63
2023/07/28 12:01:37;;;;;;;4.38;3.00;;;;;;;;;;10416150;27;20074;-64
2023/07/28 12:07:06;;;;;;;2.15;1.50;;;;;;;;;;10418562;27;20065;-64
2023/07/28 12:12:07;;;;;;;2.53;2.00;;;;;;;;;;10414725;27;20125;-62
2023/07/28 12:17:12;;;;;;;2.80;2.60;;;;;;;;;;10418559;27;20071;-63
2023/07/28 12:22:13;;;;;;;4.65;2.08;;;;;;;;;;10417417;27;20067;-63
2023/07/28 12:27:13;;;;;;;2.17;1.95;;;;;;;;;;10416523;27;20078;-63
2023/07/28 12:32:12;;;;;;;2.58;1.98;;;;;;;;;;10419255;27;20083;-63
2023/07/28 12:37:21;;;;;;;5.10;2.05;;;;;;;;;;10420662;27;20070;-63
2023/07/28 12:42:41;;;;;;;3.53;1.70;;;;;;;;;;10418438;27;20071;-64
2023/07/28 12:47:43;;;;;;;3.28;1.83;;;;;;;;;;10416498;27;20071;-63
2023/07/28 12:52:41;;;;;;;1.75;1.50;;;;;;;;;;10412660;27;20513;-63
2023/07/28 12:57:44;;;;;;;3.67;1.75;;;;;;;;;;10418207;27;20042;-64
2023/07/28 13:02:43;;;;;;;9.23;3.03;;;;;;;;;;10414318;27;20082;-63
2023/07/28 13:07:41;;;;;;;2.60;1.58;;;;;;;;;;10417704;27;20075;-64
2023/07/28 13:12:44;;;;;;;2.17;1.80;;;;;;;;;;10416740;27;20067;-63
2023/07/28 13:17:45;;;;;;;1.60;1.50;;;;;;;;;;10415126;27;20071;-63
2023/07/28 13:22:43;;;;;;;2.75;2.03;;;;;;;;;;10416189;27;20072;-64
2023/07/28 13:27:41;;;;;;;65.63;33.90;;;;;;;;;;10415064;27;20076;-63
2023/07/28 13:32:41;;;;;;;10.65;5.70;;;;;;;;;;10385753;27;20106;-63
2023/07/28 13:37:39;;;;;;;4.93;4.05;;;;;;;;;;10404228;27;20508;-64
2023/07/28 13:42:37;;;;;;;7.78;2.40;;;;;;;;;;10413010;27;20463;-64
2023/07/28 13:47:36;;;;;;;10.43;6.03;;;;;;;;;;10413988;27;20075;-63
2023/07/28 13:52:35;;;;;;;4.38;1.70;;;;;;;;;;10411779;27;20444;-63
2023/07/28 13:57:33;;;;;;;2.30;1.95;;;;;;;;;;10411435;27;20067;-63
2023/07/28 14:02:32;;;;;;;4.40;3.00;;;;;;;;;;10412500;27;20052;-64
2023/07/28 14:07:30;;;;;;;2.63;2.13;;;;;;;;;;10414403;27;20070;-63
2023/07/28 14:12:30;;;;;;;2.15;1.95;;;;;;;;;;10411738;27;20101;-65
2023/07/28 14:17:28;;;;;;;2.05;1.70;;;;;;;;;;10408250;27;20129;-62
2023/07/28 14:22:26;;;;;;;1.98;1.75;;;;;;;;;;10413455;28;20079;-63
2023/07/28 14:27:25;;;;;;;1.77;1.67;;;;;;;;;;10405781;28;20074;-63
2023/07/28 14:32:24;;;;;;;2.00;1.70;;;;;;;;;;10411659;28;20492;-63
2023/07/28 14:37:22;;;;;;;3.13;1.90;;;;;;;;;;10405809;28;20062;-64
2023/07/28 14:42:21;;;;;;;1.70;1.40;;;;;;;;;;10402005;28;20078;-64
2023/07/28 14:47:19;;;;;;;5.25;2.88;;;;;;;;;;10411450;28;20082;-64
2023/07/28 14:52:18;;;;;;;3.35;1.63;;;;;;;;;;10406106;28;20195;-63
2023/07/28 14:57:17;;;;;;;5.25;1.48;;;;;;;;;;10408694;28;20059;-63
2023/07/28 15:02:32;;;;;;;10.70;3.22;;;;;;;;;;10406435;28;20067;-64
2023/07/28 15:07:32;;;;;;;2.05;1.80;;;;;;;;;;10390030;28;20063;-62
2023/07/28 15:12:30;;;;;;;2.35;1.90;;;;;;;;;;10406192;28;20078;-63
2023/07/28 15:17:29;;;;;;;2.75;1.63;;;;;;;;;;10406472;28;21360;-64
2023/07/28 15:22:27;;;;;;;2.50;1.83;;;;;;;;;;10403373;28;20635;-63
2023/07/28 15:27:26;;;;;;;10.10;2.92;;;;;;;;;;10406194;27;20132;-63
2023/07/28 15:32:25;;;;;;;2.88;2.10;;;;;;;;;;10412711;27;20078;-64
2023/07/28 15:37:23;;;;;;;3.63;3.33;;;;;;;;;;10413823;27;20063;-63
2023/07/28 15:42:22;;;;;;;2.85;2.15;;;;;;;;;;10414165;27;20070;-64
2023/07/28 15:47:22;;;;;;;2.20;2.00;;;;;;;;;;10413543;27;20504;-63
2023/07/28 15:52:20;;;;;;;4.13;2.58;;;;;;;;;;10416558;27;20098;-63
2023/07/28 15:57:19;;;;;;;4.40;1.73;;;;;;;;;;10413605;27;20513;-63
2023/07/28 16:02:17;;;;;;;5.38;2.83;;;;;;;;;;10416858;27;20067;-63
2023/07/28 16:07:17;;;;;;;3.08;2.08;;;;;;;;;;10410879;27;20074;-63
2023/07/28 16:12:15;;;;;;;2.10;1.88;;;;;;;;;;10409278;27;20515;-63
2023/07/28 16:17:13;;;;;;;4.07;2.47;;;;;;;;;;10412142;27;20082;-65
2023/07/28 16:22:11;;;;;;;6.88;1.80;;;;;;;;;;10407478;27;20181;-64
2023/07/28 16:27:11;;;;;;;3.30;1.83;;;;;;;;;;10415734;27;20067;-63
2023/07/28 16:32:10;;;;;;;3.92;2.22;;;;;;;;;;10410318;27;20071;-62
2023/07/28 16:37:09;;;;;;;2.95;2.70;;;;;;;;;;10407024;27;20443;-62
2023/07/28 16:42:08;;;;;;;3.15;2.65;;;;;;;;;;10412035;27;20063;-62
2023/07/28 16:47:08;;;;;;;8.35;3.13;;;;;;;;;;10404239;27;20078;-61
2023/07/28 16:52:07;;;;;;;5.35;3.40;;;;;;;;;;10411380;27;20161;-62
2023/07/28 16:57:05;;;;;;;2.80;2.40;;;;;;;;;;10408894;27;20066;-63
2023/07/28 17:02:03;;;;;;;3.42;2.78;;;;;;;;;;10398929;27;20117;-62
2023/07/28 17:07:03;;;;;;;5.30;2.75;;;;;;;;;;10407149;27;20078;-62
2023/07/28 17:12:02;;;;;;;4.97;3.40;;;;;;;;;;10408219;27;20126;-62
2023/07/28 17:17:00;;;;;;;4.53;3.10;;;;;;;;;;10414161;27;20078;-63
2023/07/28 17:21:58;;;;;;;12.65;4.82;;;;;;;;;;10407936;27;20062;-63
2023/07/28 17:26:58;;;;;;;10.32;5.88;;;;;;;;;;10413313;27;20067;-63
2023/07/28 17:31:56;;;;;;;11.10;4.50;;;;;;;;;;10413083;27;20075;-62
2023/07/28 17:36:54;;;;;;;4.68;3.30;;;;;;;;;;10411651;27;20062;-62
2023/07/28 17:41:53;;;;;;;7.35;3.00;;;;;;;;;;10412070;27;20085;-63
2023/07/28 17:46:52;;;;;;;5.70;4.10;;;;;;;;;;10408764;27;20062;-63
2023/07/28 17:51:50;;;;;;;7.47;4.13;;;;;;;;;;10409314;27;20081;-63
2023/07/28 17:56:49;;;;;;;6.75;4.47;;;;;;;;;;10409583;27;20063;-62
2023/07/28 18:01:47;;;;;;;8.20;5.10;;;;;;;;;;10407880;27;20063;-61
2023/07/28 18:06:46;;;;;;;8.13;6.05;;;;;;;;;;10405789;27;20060;-62
2023/07/28 18:11:45;;;;;;;8.30;4.90;;;;;;;;;;10406989;27;20527;-62
2023/07/28 18:16:43;;;;;;;7.65;3.90;;;;;;;;;;10409477;27;20059;-62
2023/07/28 18:21:41;;;;;;;5.00;3.90;;;;;;;;;;10413175;27;20348;-64
2023/07/28 18:26:44;;;;;;;4.13;3.65;;;;;;;;;;10411063;27;20086;-62
2023/07/28 18:31:42;;;;;;;3.53;3.22;;;;;;;;;;10411312;28;20090;-63
2023/07/28 18:36:40;;;;;;;5.05;3.10;;;;;;;;;;10407038;28;20539;-63
2023/07/28 18:41:39;;;;;;;9.00;3.90;;;;;;;;;;10412783;28;20059;-64
2023/07/28 18:46:38;;;;;;;6.28;3.20;;;;;;;;;;10413352;28;20082;-63
2023/07/28 18:51:37;;;;;;;4.88;4.30;;;;;;;;;;10412146;28;20043;-62
2023/07/28 18:56:36;;;;;;;6.10;5.18;;;;;;;;;;10405985;28;20090;-64
2023/07/28 19:01:34;;;;;;;5.97;2.83;;;;;;;;;;10394260;27;20074;-64
2023/07/28 19:06:34;;;;;;;8.13;4.65;;;;;;;;;;10419935;27;20059;-62
2023/07/28 19:11:32;;;;;;;4.45;4.05;;;;;;;;;;10417625;27;20535;-63
2023/07/28 19:16:31;;;;;;;6.53;3.40;;;;;;;;;;10415840;27;20074;-62
2023/07/28 19:21:30;;;;;;;2.97;2.65;;;;;;;;;;10419948;27;20083;-63
2023/07/28 19:26:30;;;;;;;7.63;4.38;;;;;;;;;;10421621;27;20067;-63
2023/07/28 19:31:28;;;;;;;5.72;4.00;;;;;;;;;;10418448;27;20074;-62
2023/07/28 19:36:26;;;;;;;6.50;2.72;;;;;;;;;;10413913;27;20079;-63
2023/07/28 19:41:25;;;;;;;4.88;3.50;;;;;;;;;;10419957;27;20327;-62
2023/07/28 19:46:27;;;;;;;3.60;2.38;;;;;;;;;;10414982;27;20071;-63
2023/07/28 19:51:26;;;;;;;5.38;3.05;;;;;;;;;;10415592;27;20074;-63
2023/07/28 19:56:25;;;;;;;2.65;2.35;;;;;;;;;;10405259;27;20167;-63
2023/07/28 20:01:29;;;;;;;4.47;3.10;;;;;;;;;;10415955;27;20078;-62
2023/07/28 20:06:29;;;;;;;3.92;2.83;;;;;;;;;;10417720;27;20594;-63
2023/07/28 20:11:27;;;;;;;5.38;3.08;;;;;;;;;;10407775;27;20085;-63
2023/07/28 20:16:26;;;;;;;4.63;2.58;;;;;;;;;;10417133;27;20067;-63
2023/07/28 20:21:25;;;;;;;3.97;2.42;;;;;;;;;;10411299;27;20067;-63
2023/07/28 20:26:23;;;;;;;3.05;2.30;;;;;;;;;;10410072;27;20074;-63
2023/07/28 20:31:22;;;;;;;2.67;2.33;;;;;;;;;;10408717;27;20672;-64
2023/07/28 20:36:23;;;;;;;3.70;2.55;;;;;;;;;;10417294;27;20071;-63
2023/07/28 20:41:21;;;;;;;3.58;2.15;;;;;;;;;;10416609;27;20519;-63
2023/07/28 20:46:19;;;;;;;2.40;2.20;;;;;;;;;;10411983;27;20503;-64
2023/07/28 20:51:18;;;;;;;3.97;2.65;;;;;;;;;;10413911;27;20073;-63
2023/07/28 20:56:17;;;;;;;5.30;2.90;;;;;;;;;;10409669;27;20174;-62
2023/07/28 21:01:16;;;;;;;3.05;2.42;;;;;;;;;;10419578;27;20082;-62
2023/07/28 21:06:14;;;;;;;5.07;2.38;;;;;;;;;;10417954;27;20067;-62
2023/07/28 21:11:12;;;;;;;3.20;2.05;;;;;;;;;;10416506;27;20077;-62
2023/07/28 21:16:12;;;;;;;2.13;1.85;;;;;;;;;;10413529;27;20078;-64
2023/07/28 21:21:10;;;;;;;3.08;2.78;;;;;;;;;;10415256;27;20555;-62
2023/07/28 21:26:08;;;;;;;3.03;1.88;;;;;;;;;;10413642;27;20558;-63
2023/07/28 21:31:07;;;;;;;2.38;2.13;;;;;;;;;;10416149;27;20467;-62
2023/07/28 21:36:06;;;;;;;2.50;2.22;;;;;;;;;;10418739;27;20071;-62
2023/07/28 21:41:05;;;;;;;3.30;2.42;;;;;;;;;;10407622;27;20074;-62
2023/07/28 21:46:03;;;;;;;2.28;1.90;;;;;;;;;;10412415;27;20480;-62
2023/07/28 21:51:01;;;;;;;5.63;1.95;;;;;;;;;;10411849;27;20085;-63
2023/07/28 21:56:01;;;;;;;2.20;1.77;;;;;;;;;;10413788;27;20082;-62
2023/07/28 22:00:59;;;;;;;1.90;1.70;;;;;;;;;;10411942;27;20071;-62
2023/07/28 22:05:57;;;;;;;4.40;1.75;;;;;;;;;;10411021;27;20066;-62
2023/07/28 22:10:56;;;;;;;2.20;2.00;;;;;;;;;;10412772;27;20067;-63
2023/07/28 22:15:56;;;;;;;4.15;3.20;;;;;;;;;;10406674;27;20093;-62
2023/07/28 22:20:55;;;;;;;2.90;2.63;;;;;;;;;;10414445;27;20067;-62
2023/07/28 22:25:53;;;;;;;7.20;2.60;;;;;;;;;;10416842;27;20527;-62
2023/07/28 22:30:51;;;;;;;5.13;3.17;;;;;;;;;;10414668;28;20077;-63
2023/07/28 22:35:51;;;;;;;7.07;3.20;;;;;;;;;;10415424;27;20108;-62
2023/07/28 22:40:50;;;;;;;5.15;2.50;;;;;;;;;;10422002;27;20623;-63
2023/07/28 22:45:48;;;;;;;4.35;2.33;;;;;;;;;;10424147;27;20066;-63
2023/07/28 22:50:46;;;;;;;2.30;2.10;;;;;;;;;;10417561;27;20043;-63
2023/07/28 22:55:46;;;;;;;3.03;2.05;;;;;;;;;;10422108;27;20520;-63
2023/07/28 23:00:44;;;;;;;1.95;1.83;;;;;;;;;;10417166;27;20094;-62
2023/07/28 23:05:43;;;;;;;2.42;2.08;;;;;;;;;;10419375;27;20071;-63
2023/07/28 23:10:41;;;;;;;3.33;1.73;;;;;;;;;;10416980;27;20067;-63
2023/07/28 23:15:40;;;;;;;2.25;2.00;;;;;;;;;;10418076;27;20085;-63
2023/07/28 23:20:39;;;;;;;4.38;2.60;;;;;;;;;;10417776;27;20071;-63
2023/07/28 23:25:37;;;;;;;4.15;1.95;;;;;;;;;;10417855;27;20094;-63
2023/07/28 23:30:35;;;;;;;2.05;1.60;;;;;;;;;;10417293;27;20567;-63
2023/07/28 23:35:34;;;;;;;3.47;2.38;;;;;;;;;;10418099;27;20082;-62
2023/07/28 23:40:33;;;;;;;4.15;2.25;;;;;;;;;;10418530;27;20067;-63
2023/07/28 23:45:31;;;;;;;2.20;1.85;;;;;;;;;;10415673;27;20078;-62
2023/07/28 23:50:29;;;;;;;2.40;2.00;;;;;;;;;;10416493;27;20101;-63
2023/07/28 23:55:28;;;;;;;6.13;2.15;;;;;;;;;;10417262;27;20078;-63
